Time;durP1;ratioP1;P1;durP2;ratioP2;P2;SDS_P1;SDS_P2;PMS_P1;PMS_P2;Temp;Humidity;BMP_temperature;BMP_pressure;BME280_temperature;BME280_humidity;BME280_pressure;Samples;Min_cycle;Max_cycle;Signal;HPM_P1;HPM_P2
2022/09/12 00:02:25;;;;;;;22.58;9.05;;;;;;;;;;8465787;28;20104;-85
2022/09/12 00:06:30;;;;;;;22.38;7.38;;;;;;;;;;8466397;28;20040;-82
2022/09/12 00:10:37;;;;;;;14.30;7.55;;;;;;;;;;8465674;28;20040;-85
2022/09/12 00:14:39;;;;;;;15.52;8.10;;;;;;;;;;8465513;28;20043;-84
2022/09/12 00:18:42;;;;;;;23.17;9.50;;;;;;;;;;8465604;28;20040;-80
2022/09/12 00:22:44;;;;;;;23.27;8.93;;;;;;;;;;8463490;28;20059;-86
2022/09/12 00:26:57;;;;;;;25.33;9.52;;;;;;;;;;8452162;28;20051;-81
2022/09/12 00:31:07;;;;;;;29.50;9.73;;;;;;;;;;8449508;28;20120;-86
2022/09/12 00:35:10;;;;;;;22.88;9.38;;;;;;;;;;8436811;28;20052;-82
2022/09/12 00:39:16;;;;;;;26.40;9.82;;;;;;;;;;8436495;28;20381;-82
2022/09/12 00:47:47;;;;;;;35.63;12.27;;;;;;;;;;8519533;27;1635943;-86
2022/09/12 00:51:55;;;;;;;29.65;10.25;;;;;;;;;;8548730;27;20039;-82
2022/09/12 00:55:58;;;;;;;30.83;10.32;;;;;;;;;;8541794;27;20112;-81
2022/09/12 01:00:10;;;;;;;35.20;11.02;;;;;;;;;;8545598;27;20035;-89
2022/09/12 01:04:14;;;;;;;32.92;10.43;;;;;;;;;;8533175;27;20038;-86
2022/09/12 01:08:17;;;;;;;28.92;9.68;;;;;;;;;;8536476;27;20073;-82
2022/09/12 01:12:21;;;;;;;32.72;10.98;;;;;;;;;;8536557;27;20064;-89
2022/09/12 01:16:23;;;;;;;33.13;11.10;;;;;;;;;;8541141;27;20512;-87
2022/09/12 01:20:56;;;;;;;25.05;10.88;;;;;;;;;;8535230;27;20130;-82
2022/09/12 01:25:11;;;;;;;23.33;9.32;;;;;;;;;;8542778;27;20039;-88
2022/09/12 01:29:35;;;;;;;16.25;8.15;;;;;;;;;;8539852;27;20086;-82
2022/09/12 01:33:55;;;;;;;20.92;9.85;;;;;;;;;;8525189;27;20519;-81
2022/09/12 01:38:07;;;;;;;26.13;11.05;;;;;;;;;;8540099;27;20043;-86
2022/09/12 01:42:19;;;;;;;25.35;11.20;;;;;;;;;;8524964;27;20047;-81
2022/09/12 01:46:28;;;;;;;25.38;11.30;;;;;;;;;;8524386;27;20043;-86
2022/09/12 01:50:37;;;;;;;27.25;11.18;;;;;;;;;;8525014;27;20043;-81
2022/09/12 01:54:45;;;;;;;25.08;11.40;;;;;;;;;;8524362;27;20091;-82
2022/09/12 01:58:52;;;;;;;29.13;12.25;;;;;;;;;;8503966;27;20039;-81
2022/09/12 02:03:01;;;;;;;27.13;11.80;;;;;;;;;;8507314;27;20126;-84
2022/09/12 02:07:11;;;;;;;31.75;16.33;;;;;;;;;;8508278;27;20058;-83
2022/09/12 02:11:13;;;;;;;31.08;17.58;;;;;;;;;;8500948;27;20239;-81
2022/09/12 02:15:20;;;;;;;36.92;19.85;;;;;;;;;;8501397;27;20047;-87
2022/09/12 02:19:27;;;;;;;27.33;14.65;;;;;;;;;;8500761;27;20047;-82
2022/09/12 02:23:32;;;;;;;29.40;13.57;;;;;;;;;;8501044;27;20043;-84
2022/09/12 02:27:40;;;;;;;30.27;15.95;;;;;;;;;;8500482;27;20065;-86
2022/09/12 02:31:46;;;;;;;34.08;14.63;;;;;;;;;;8505712;27;20443;-84
2022/09/12 02:35:52;;;;;;;36.38;15.75;;;;;;;;;;8509446;27;20054;-82
2022/09/12 02:39:57;;;;;;;31.02;14.13;;;;;;;;;;8500021;27;20051;-85
2022/09/12 02:44:00;;;;;;;37.63;15.35;;;;;;;;;;8500068;27;20047;-81
2022/09/12 02:48:08;;;;;;;38.83;15.95;;;;;;;;;;8460322;28;20044;-83
2022/09/12 02:52:10;;;;;;;45.10;16.42;;;;;;;;;;8452045;28;20046;-85
2022/09/12 02:56:19;;;;;;;33.83;15.55;;;;;;;;;;8467223;28;20035;-82
2022/09/12 03:00:23;;;;;;;29.08;13.98;;;;;;;;;;8451162;28;20078;-86
2022/09/12 03:04:54;;;;;;;35.35;14.95;;;;;;;;;;8450902;28;20051;-85
2022/09/12 03:09:08;;;;;;;40.20;15.80;;;;;;;;;;8464251;28;20040;-89
2022/09/12 03:13:20;;;;;;;34.35;14.45;;;;;;;;;;8465577;28;20131;-84
2022/09/12 03:17:26;;;;;;;;;;;;;;;;;;8465586;28;20142;-81
2022/09/12 03:21:33;;;;;;;25.10;11.68;;;;;;;;;;8465257;28;20329;-88
2022/09/12 03:25:42;;;;;;;24.50;11.07;;;;;;;;;;8464727;28;20043;-81
2022/09/12 03:29:47;;;;;;;28.00;12.45;;;;;;;;;;8464478;28;20048;-87
2022/09/12 03:33:50;;;;;;;24.38;11.07;;;;;;;;;;8464442;28;20036;-82
2022/09/12 03:37:53;;;;;;;26.40;12.13;;;;;;;;;;8464403;28;20054;-88
2022/09/12 03:41:56;;;;;;;21.80;10.38;;;;;;;;;;8464669;28;20040;-82
2022/09/12 03:46:00;;;;;;;18.67;9.93;;;;;;;;;;8488590;27;20073;-85
2022/09/12 03:50:02;;;;;;;14.90;8.95;;;;;;;;;;8501587;27;20442;-82
2022/09/12 03:54:06;;;;;;;16.80;8.32;;;;;;;;;;8499906;27;20047;-87
2022/09/12 03:58:08;;;;;;;11.82;7.80;;;;;;;;;;8512837;27;20040;-84
2022/09/12 04:02:12;;;;;;;11.23;7.55;;;;;;;;;;8512570;27;20047;-87
2022/09/12 04:06:17;;;;;;;18.23;9.35;;;;;;;;;;8512142;27;20126;-84
2022/09/12 04:10:19;;;;;;;20.38;11.45;;;;;;;;;;8512044;27;20049;-81
2022/09/12 04:14:22;;;;;;;12.68;7.90;;;;;;;;;;8497612;27;20051;-85
2022/09/12 04:18:27;;;;;;;15.65;9.30;;;;;;;;;;8497181;27;20047;-87
2022/09/12 04:22:30;;;;;;;28.65;17.42;;;;;;;;;;8496819;27;20053;-81
2022/09/12 04:26:33;;;;;;;16.38;9.82;;;;;;;;;;8511591;27;20035;-82
2022/09/12 04:30:35;;;;;;;16.83;9.07;;;;;;;;;;8496826;27;20054;-81
2022/09/12 04:34:39;;;;;;;19.67;11.88;;;;;;;;;;8496792;27;20039;-83
2022/09/12 04:38:43;;;;;;;18.10;9.38;;;;;;;;;;8511782;27;20398;-81
2022/09/12 04:42:45;;;;;;;17.90;9.32;;;;;;;;;;8496591;27;20130;-82
2022/09/12 04:46:48;;;;;;;13.32;8.75;;;;;;;;;;8499502;27;20127;-81
2022/09/12 04:50:52;;;;;;;13.00;9.05;;;;;;;;;;8507443;27;20043;-88
2022/09/12 04:54:54;;;;;;;15.70;8.82;;;;;;;;;;8511056;27;20063;-87
2022/09/12 04:58:59;;;;;;;19.60;8.85;;;;;;;;;;8496536;27;20122;-88
2022/09/12 05:03:01;;;;;;;15.63;9.13;;;;;;;;;;8503515;27;20118;-81
2022/09/12 05:07:10;;;;;;;15.40;9.32;;;;;;;;;;8507154;27;20049;-82
2022/09/12 05:11:23;;;;;;;16.15;9.02;;;;;;;;;;8505647;27;20063;-83
2022/09/12 05:15:36;;;;;;;13.40;8.50;;;;;;;;;;8519476;27;20054;-89
2022/09/12 05:19:45;;;;;;;14.93;9.40;;;;;;;;;;8496252;27;20043;-88
2022/09/12 05:23:59;;;;;;;;;;;;;;;;;;8511394;27;20499;-90
2022/09/12 05:28:09;;;;;;;24.67;11.50;;;;;;;;;;8508165;27;20327;-88
2022/09/12 05:32:19;;;;;;;20.58;11.68;;;;;;;;;;8513857;27;20195;-89
2022/09/12 05:36:25;;;;;;;28.42;14.68;;;;;;;;;;8511661;27;20496;-88
2022/09/12 05:40:29;;;;;;;26.23;16.42;;;;;;;;;;8517641;27;20069;-84
2022/09/12 05:44:32;;;;;;;24.50;15.00;;;;;;;;;;8501576;27;20051;-81
2022/09/12 05:48:35;;;;;;;28.65;16.42;;;;;;;;;;8502225;27;20054;-85
2022/09/12 05:52:49;;;;;;;31.92;18.70;;;;;;;;;;8516229;27;20125;-90
2022/09/12 05:57:10;;;;;;;30.63;20.08;;;;;;;;;;8513637;27;20046;-88
2022/09/12 06:01:15;;;;;;;33.40;19.92;;;;;;;;;;8512324;27;20042;-88
2022/09/12 06:05:23;;;;;;;27.80;18.08;;;;;;;;;;8518338;27;20069;-89
2022/09/12 06:14:09;;;;;;;32.80;17.52;;;;;;;;;;8497643;27;20050;-91
2022/09/12 06:18:13;;;;;;;29.88;14.32;;;;;;;;;;8501769;27;20051;-90
2022/09/12 06:22:18;;;;;;;25.48;12.88;;;;;;;;;;8540073;27;20103;-90
2022/09/12 06:26:30;;;;;;;19.60;13.02;;;;;;;;;;8509237;27;20060;-90
2022/09/12 06:30:42;;;;;;;14.75;8.32;;;;;;;;;;8510784;27;20051;-88
2022/09/12 06:34:47;;;;;;;25.90;13.80;;;;;;;;;;8522243;27;20098;-89
2022/09/12 06:39:01;;;;;;;20.98;13.10;;;;;;;;;;8539052;27;20047;-89
2022/09/12 06:43:08;;;;;;;19.75;11.57;;;;;;;;;;8533084;27;20047;-88
2022/09/12 06:47:17;;;;;;;18.80;11.67;;;;;;;;;;8530119;27;20067;-86
2022/09/12 06:51:20;;;;;;;23.65;11.82;;;;;;;;;;8529165;27;20050;-83
2022/09/12 06:55:23;;;;;;;20.77;10.25;;;;;;;;;;8501032;27;20520;-82
2022/09/12 06:59:26;;;;;;;18.33;10.38;;;;;;;;;;8525794;27;20046;-87
2022/09/12 07:03:30;;;;;;;17.48;10.27;;;;;;;;;;8502248;27;20099;-82
2022/09/12 07:07:34;;;;;;;13.93;10.10;;;;;;;;;;8529271;27;20470;-84
2022/09/12 07:11:38;;;;;;;16.35;10.65;;;;;;;;;;8510085;27;20073;-82
2022/09/12 07:15:41;;;;;;;16.77;11.00;;;;;;;;;;8498391;27;20046;-81
2022/09/12 07:19:45;;;;;;;18.35;10.10;;;;;;;;;;8498832;27;20410;-82
2022/09/12 07:23:48;;;;;;;14.70;9.25;;;;;;;;;;8499438;27;20452;-87
2022/09/12 07:27:52;;;;;;;16.73;8.27;;;;;;;;;;8498462;27;20043;-88
2022/09/12 07:31:54;;;;;;;14.98;8.82;;;;;;;;;;8498708;27;20110;-83
2022/09/12 07:36:03;;;;;;;17.63;8.23;;;;;;;;;;8498960;27;20466;-81
2022/09/12 07:40:06;;;;;;;16.20;8.00;;;;;;;;;;8512824;27;20043;-84
2022/09/12 07:44:09;;;;;;;15.45;7.82;;;;;;;;;;8497926;27;20051;-82
2022/09/12 07:48:12;;;;;;;14.13;7.30;;;;;;;;;;8498701;27;20417;-86
2022/09/12 07:52:16;;;;;;;17.02;8.02;;;;;;;;;;8511788;27;20043;-86
2022/09/12 07:56:20;;;;;;;15.82;6.43;;;;;;;;;;8497427;27;20047;-82
2022/09/12 08:00:23;;;;;;;8.10;5.40;;;;;;;;;;8497986;27;20554;-86
2022/09/12 08:04:25;;;;;;;11.40;5.53;;;;;;;;;;8512089;27;20043;-82
2022/09/12 08:08:29;;;;;;;11.18;5.88;;;;;;;;;;8507337;27;20154;-84
2022/09/12 08:12:33;;;;;;;8.75;4.55;;;;;;;;;;8510953;27;20114;-82
2022/09/12 08:16:36;;;;;;;10.02;4.90;;;;;;;;;;8509889;27;20044;-87
2022/09/12 08:20:54;;;;;;;7.47;3.83;;;;;;;;;;8514233;27;20043;-89
2022/09/12 08:25:06;;;;;;;6.65;3.47;;;;;;;;;;8515351;27;20051;-91
2022/09/12 08:29:13;;;;;;;6.50;3.47;;;;;;;;;;8492766;27;20054;-89
2022/09/12 08:33:19;;;;;;;6.35;3.55;;;;;;;;;;8492711;27;20130;-90
2022/09/12 08:37:22;;;;;;;6.88;4.18;;;;;;;;;;8502882;27;20053;-87
2022/09/12 08:41:30;;;;;;;5.72;3.70;;;;;;;;;;8505397;27;20043;-87
2022/09/12 08:45:44;;;;;;;8.98;3.58;;;;;;;;;;8509045;27;20082;-84
2022/09/12 08:50:02;;;;;;;7.63;3.40;;;;;;;;;;8507842;27;20035;-85
2022/09/12 08:54:16;;;;;;;5.05;3.50;;;;;;;;;;8499975;27;20512;-87
2022/09/12 08:58:26;;;;;;;6.18;2.90;;;;;;;;;;8501855;27;20046;-88
2022/09/12 09:02:56;;;;;;;5.60;2.67;;;;;;;;;;8495879;27;20135;-86
2022/09/12 09:07:23;;;;;;;7.80;3.05;;;;;;;;;;8508755;27;20187;-85
2022/09/12 09:11:56;;;;;;;5.65;2.70;;;;;;;;;;8517099;27;20083;-89
2022/09/12 09:16:13;;;;;;;5.07;2.47;;;;;;;;;;8508928;27;20043;-91
2022/09/12 09:20:28;;;;;;;6.05;2.92;;;;;;;;;;8520566;27;20074;-90
2022/09/12 09:24:51;;;;;;;3.60;2.30;;;;;;;;;;8517011;27;20046;-88
2022/09/12 09:29:02;;;;;;;5.85;2.35;;;;;;;;;;8503414;27;20039;-89
2022/09/12 09:33:18;;;;;;;6.13;2.40;;;;;;;;;;8506134;27;20046;-85
2022/09/12 09:37:26;;;;;;;6.97;2.35;;;;;;;;;;8523391;27;20046;-85
2022/09/12 09:41:52;;;;;;;7.18;2.63;;;;;;;;;;8518105;27;20041;-86
2022/09/12 09:45:58;;;;;;;4.10;2.50;;;;;;;;;;8512510;27;20130;-84
2022/09/12 09:50:02;;;;;;;7.55;2.40;;;;;;;;;;8501374;27;20050;-81
2022/09/12 09:54:16;;;;;;;4.00;2.38;;;;;;;;;;8501846;27;20049;-86
2022/09/12 09:58:29;;;;;;;4.03;2.38;;;;;;;;;;8506229;27;20042;-81
2022/09/12 10:02:32;;;;;;;6.05;2.50;;;;;;;;;;8512417;27;20047;-81
2022/09/12 10:06:39;;;;;;;7.07;2.60;;;;;;;;;;8512687;27;20402;-86
2022/09/12 10:10:53;;;;;;;5.47;2.03;;;;;;;;;;8501098;27;20039;-81
2022/09/12 10:14:59;;;;;;;4.53;2.40;;;;;;;;;;8515842;27;20035;-82
2022/09/12 10:19:04;;;;;;;11.02;5.07;;;;;;;;;;8503101;27;20065;-89
2022/09/12 10:23:29;;;;;;;7.38;4.50;;;;;;;;;;8527598;27;20051;-88
2022/09/12 10:27:33;;;;;;;6.78;3.95;;;;;;;;;;8504199;27;20482;-85
2022/09/12 10:31:43;;;;;;;6.05;3.10;;;;;;;;;;8508278;27;20043;-83
2022/09/12 10:35:53;;;;;;;5.07;2.95;;;;;;;;;;8505008;27;20039;-89
2022/09/12 10:40:04;;;;;;;5.63;2.50;;;;;;;;;;8504059;27;20481;-87
2022/09/12 10:44:14;;;;;;;4.28;2.28;;;;;;;;;;8497430;27;20054;-87
2022/09/12 10:48:28;;;;;;;3.53;2.53;;;;;;;;;;8503687;27;20505;-89
2022/09/12 10:52:45;;;;;;;5.15;2.70;;;;;;;;;;8511582;27;20039;-88
2022/09/12 10:57:16;;;;;;;3.97;2.35;;;;;;;;;;8505493;27;20055;-87
2022/09/12 11:01:37;;;;;;;7.35;3.55;;;;;;;;;;8508052;27;20093;-87
2022/09/12 11:06:00;;;;;;;6.97;3.33;;;;;;;;;;8501462;27;20070;-88
2022/09/12 11:10:25;;;;;;;4.75;2.45;;;;;;;;;;8509019;27;20043;-85
2022/09/12 11:14:51;;;;;;;4.90;2.38;;;;;;;;;;8502738;27;20415;-87
2022/09/12 11:19:18;;;;;;;4.05;2.25;;;;;;;;;;8514996;27;20162;-87
2022/09/12 11:23:52;;;;;;;5.00;2.10;;;;;;;;;;8509986;27;20043;-89
2022/09/12 11:28:27;;;;;;;5.85;2.47;;;;;;;;;;8504872;27;20046;-89
2022/09/12 11:33:07;;;;;;;5.07;2.40;;;;;;;;;;8518235;27;20772;-86
2022/09/12 11:37:30;;;;;;;4.05;2.03;;;;;;;;;;8501316;27;20084;-88
2022/09/12 11:41:44;;;;;;;5.65;2.40;;;;;;;;;;8523899;27;20043;-89
2022/09/12 11:45:53;;;;;;;6.45;2.58;;;;;;;;;;8492680;27;20571;-89
2022/09/12 11:50:00;;;;;;;5.18;2.47;;;;;;;;;;8522215;27;20129;-88
2022/09/12 11:54:38;;;;;;;7.25;2.78;;;;;;;;;;8493348;27;20050;-87
2022/09/12 11:58:54;;;;;;;5.72;2.33;;;;;;;;;;8463049;27;20062;-89
2022/09/12 12:03:04;;;;;;;3.75;2.30;;;;;;;;;;8505774;27;20062;-82
2022/09/12 12:07:11;;;;;;;5.05;2.42;;;;;;;;;;8513845;27;20046;-82
2022/09/12 12:11:24;;;;;;;4.38;2.33;;;;;;;;;;8524820;27;20092;-82
2022/09/12 12:15:27;;;;;;;5.38;2.40;;;;;;;;;;8502733;27;20477;-83
2022/09/12 12:19:35;;;;;;;6.75;2.70;;;;;;;;;;8523079;27;20104;-84
2022/09/12 12:23:38;;;;;;;5.32;2.35;;;;;;;;;;8510408;27;20540;-85
2022/09/12 12:27:54;;;;;;;4.30;2.30;;;;;;;;;;8500355;27;20130;-85
2022/09/12 12:32:22;;;;;;;5.03;2.50;;;;;;;;;;8497074;27;20516;-83
2022/09/12 12:36:49;;;;;;;3.63;2.25;;;;;;;;;;8489667;27;20043;-87
2022/09/12 12:40:52;;;;;;;5.07;2.75;;;;;;;;;;8505265;27;20869;-86
2022/09/12 12:44:56;;;;;;;4.18;2.40;;;;;;;;;;8516871;27;20482;-83
2022/09/12 12:49:08;;;;;;;3.75;2.13;;;;;;;;;;8505593;27;20050;-88
2022/09/12 12:53:20;;;;;;;5.45;2.33;;;;;;;;;;8509952;27;20061;-83
2022/09/12 12:57:40;;;;;;;6.00;2.28;;;;;;;;;;8516169;27;20050;-83
2022/09/12 13:01:49;;;;;;;4.53;1.90;;;;;;;;;;8507660;27;20121;-84
2022/09/12 13:06:01;;;;;;;3.25;2.00;;;;;;;;;;8508439;27;20043;-87
2022/09/12 13:10:28;;;;;;;4.28;2.10;;;;;;;;;;8507555;27;20094;-89
2022/09/12 13:14:57;;;;;;;6.15;2.00;;;;;;;;;;8504169;27;20047;-87
2022/09/12 13:19:15;;;;;;;2.85;1.77;;;;;;;;;;8502420;27;20206;-89
2022/09/12 13:23:28;;;;;;;4.40;2.20;;;;;;;;;;8507561;27;20047;-90
2022/09/12 13:27:32;;;;;;;3.58;2.05;;;;;;;;;;8511842;27;20046;-88
2022/09/12 13:31:48;;;;;;;4.32;2.15;;;;;;;;;;8519274;27;20043;-87
2022/09/12 13:36:29;;;;;;;2.88;1.80;;;;;;;;;;8505475;27;20141;-88
2022/09/12 13:40:46;;;;;;;4.35;2.03;;;;;;;;;;8498772;27;20055;-85
2022/09/12 13:44:54;;;;;;;3.47;1.70;;;;;;;;;;8518064;27;20097;-88
2022/09/12 13:49:10;;;;;;;2.40;1.70;;;;;;;;;;8496173;27;20047;-81
2022/09/12 13:53:23;;;;;;;3.60;2.00;;;;;;;;;;8513678;27;20142;-86
2022/09/12 13:57:56;;;;;;;5.82;2.75;;;;;;;;;;8525648;27;20071;-83
2022/09/12 14:02:05;;;;;;;3.65;1.90;;;;;;;;;;8497321;27;20099;-83
2022/09/12 14:06:11;;;;;;;5.03;2.13;;;;;;;;;;8506584;27;20050;-84
2022/09/12 14:10:21;;;;;;;9.05;2.10;;;;;;;;;;8502525;27;20043;-82
2022/09/12 14:14:34;;;;;;;4.45;2.08;;;;;;;;;;8496377;27;20451;-85
2022/09/12 14:18:44;;;;;;;3.67;2.20;;;;;;;;;;8520464;27;20042;-84
2022/09/12 14:22:53;;;;;;;3.88;1.92;;;;;;;;;;8530207;27;20508;-82
2022/09/12 14:27:01;;;;;;;6.05;2.10;;;;;;;;;;8522298;27;20078;-82
2022/09/12 14:31:24;;;;;;;3.97;2.10;;;;;;;;;;8506444;27;20074;-82
2022/09/12 14:35:27;;;;;;;12.35;4.38;;;;;;;;;;8507232;27;20043;-84
2022/09/12 14:39:33;;;;;;;12.18;6.68;;;;;;;;;;8510494;27;20047;-86
2022/09/12 14:43:38;;;;;;;11.18;5.88;;;;;;;;;;8503111;27;20043;-81
2022/09/12 14:47:48;;;;;;;8.38;4.70;;;;;;;;;;8513143;27;20522;-85
2022/09/12 14:51:57;;;;;;;7.75;3.55;;;;;;;;;;8514924;27;20035;-85
2022/09/12 14:56:11;;;;;;;3.40;2.15;;;;;;;;;;8499285;27;20051;-86
2022/09/12 15:00:21;;;;;;;4.32;2.45;;;;;;;;;;8503843;27;20819;-82
2022/09/12 15:08:58;;;;;;;10.68;2.40;;;;;;;;;;8443094;27;20371;-85
2022/09/12 15:13:19;;;;;;;8.02;4.22;;;;;;;;;;8461480;28;20089;-88
2022/09/12 15:17:31;;;;;;;8.13;4.23;;;;;;;;;;8439839;28;20048;-81
2022/09/12 15:21:34;;;;;;;7.07;3.97;;;;;;;;;;8453306;28;20092;-81
2022/09/12 15:25:38;;;;;;;9.98;4.60;;;;;;;;;;8455764;28;20043;-86
2022/09/12 15:29:40;;;;;;;6.85;2.85;;;;;;;;;;8455862;28;20050;-84
2022/09/12 15:33:43;;;;;;;5.30;2.92;;;;;;;;;;8455647;28;20044;-88
2022/09/12 15:37:46;;;;;;;5.57;2.75;;;;;;;;;;8455928;28;20127;-84
2022/09/12 15:41:50;;;;;;;7.50;2.97;;;;;;;;;;8455601;28;20127;-82
2022/09/12 15:45:53;;;;;;;6.45;2.92;;;;;;;;;;8455415;28;20130;-84
2022/09/12 15:49:56;;;;;;;4.05;2.53;;;;;;;;;;8455351;28;20035;-89
2022/09/12 15:53:59;;;;;;;6.95;3.13;;;;;;;;;;8459736;28;20051;-85
2022/09/12 15:58:02;;;;;;;8.18;3.55;;;;;;;;;;8455067;28;20044;-86
2022/09/12 16:02:05;;;;;;;5.82;2.83;;;;;;;;;;8457993;28;20097;-84
2022/09/12 16:06:09;;;;;;;5.47;2.60;;;;;;;;;;8451616;28;20059;-84
2022/09/12 16:10:16;;;;;;;6.68;2.88;;;;;;;;;;8449514;28;20485;-82
2022/09/12 16:14:20;;;;;;;10.07;3.90;;;;;;;;;;8454188;28;20044;-85
2022/09/12 16:18:23;;;;;;;7.25;3.30;;;;;;;;;;8445406;28;20063;-82
2022/09/12 16:22:26;;;;;;;9.00;3.55;;;;;;;;;;8432091;28;20044;-81
2022/09/12 16:26:29;;;;;;;6.15;3.25;;;;;;;;;;8429087;28;20055;-82
2022/09/12 16:30:33;;;;;;;8.57;4.10;;;;;;;;;;8436592;28;20097;-81
2022/09/12 16:34:35;;;;;;;9.35;4.47;;;;;;;;;;8432519;28;20044;-84
2022/09/12 16:38:41;;;;;;;10.65;5.00;;;;;;;;;;8431610;28;20132;-82
2022/09/12 16:42:45;;;;;;;12.38;5.72;;;;;;;;;;8431333;28;20169;-86
2022/09/12 16:46:50;;;;;;;10.95;5.57;;;;;;;;;;8437833;28;20040;-85
2022/09/12 16:51:00;;;;;;;8.80;5.00;;;;;;;;;;8429306;28;20064;-88
2022/09/12 16:55:03;;;;;;;10.57;5.25;;;;;;;;;;8438483;28;20048;-85
2022/09/12 16:59:08;;;;;;;8.98;5.07;;;;;;;;;;8432517;28;20055;-88
2022/09/12 17:03:15;;;;;;;18.60;10.32;;;;;;;;;;8430411;28;20484;-87
2022/09/12 17:07:19;;;;;;;14.77;9.77;;;;;;;;;;8428207;28;20514;-87
2022/09/12 17:11:23;;;;;;;15.95;8.77;;;;;;;;;;8413580;28;20098;-87
2022/09/12 17:15:26;;;;;;;16.67;8.52;;;;;;;;;;8422619;28;20060;-82
2022/09/12 17:19:31;;;;;;;12.35;5.88;;;;;;;;;;8421137;28;20044;-83
2022/09/12 17:23:34;;;;;;;9.63;5.40;;;;;;;;;;8426309;28;20047;-86
2022/09/12 17:27:36;;;;;;;9.30;5.47;;;;;;;;;;8423653;28;20052;-81
2022/09/12 17:31:39;;;;;;;32.20;17.05;;;;;;;;;;8407516;28;20055;-84
2022/09/12 17:35:43;;;;;;;25.27;15.27;;;;;;;;;;8411778;28;20044;-85
2022/09/12 17:39:47;;;;;;;31.90;18.75;;;;;;;;;;8436222;28;20170;-88
2022/09/12 17:43:51;;;;;;;22.65;13.82;;;;;;;;;;8433051;28;20056;-86
2022/09/12 17:47:54;;;;;;;55.80;20.70;;;;;;;;;;8433758;28;20563;-82
2022/09/12 17:51:57;;;;;;;31.73;17.35;;;;;;;;;;8423404;28;20044;-86
2022/09/12 17:56:01;;;;;;;19.80;10.98;;;;;;;;;;8430642;28;20051;-86
2022/09/12 18:00:05;;;;;;;15.38;9.10;;;;;;;;;;8430970;28;20082;-85
2022/09/12 18:04:10;;;;;;;20.75;8.85;;;;;;;;;;8430249;28;20056;-86
2022/09/12 18:08:15;;;;;;;14.05;8.25;;;;;;;;;;8429942;28;20056;-84
2022/09/12 18:12:18;;;;;;;17.77;8.60;;;;;;;;;;8427091;28;20040;-86
2022/09/12 18:16:22;;;;;;;11.65;7.70;;;;;;;;;;8429849;28;20507;-86
2022/09/12 18:20:25;;;;;;;12.30;7.85;;;;;;;;;;8430447;28;20048;-82
2022/09/12 18:24:31;;;;;;;11.05;6.82;;;;;;;;;;8412363;28;20127;-83
2022/09/12 18:28:35;;;;;;;11.10;6.50;;;;;;;;;;8435109;28;20051;-85
2022/09/12 18:32:37;;;;;;;14.05;6.57;;;;;;;;;;8441486;28;20094;-82
2022/09/12 18:36:44;;;;;;;15.18;5.60;;;;;;;;;;8443541;28;20514;-82
2022/09/12 18:40:48;;;;;;;13.48;7.50;;;;;;;;;;8439390;28;20048;-87
2022/09/12 18:44:59;;;;;;;25.73;17.45;;;;;;;;;;8432921;28;20043;-87
2022/09/12 18:49:02;;;;;;;37.08;17.92;;;;;;;;;;8437306;28;20044;-85
2022/09/12 18:53:05;;;;;;;14.70;10.95;;;;;;;;;;8429627;28;20056;-84
2022/09/12 18:57:10;;;;;;;13.13;8.43;;;;;;;;;;8427830;28;20044;-83
2022/09/12 19:01:15;;;;;;;12.02;5.47;;;;;;;;;;8418554;28;20139;-82
2022/09/12 19:05:17;;;;;;;11.73;5.90;;;;;;;;;;8428574;28;20059;-82
2022/09/12 19:09:20;;;;;;;16.98;9.30;;;;;;;;;;8398474;28;20044;-83
2022/09/12 19:13:25;;;;;;;15.15;7.60;;;;;;;;;;8407077;28;20477;-82
2022/09/12 19:17:27;;;;;;;17.92;10.85;;;;;;;;;;8396232;28;20056;-87
2022/09/12 19:21:31;;;;;;;14.13;7.72;;;;;;;;;;8395734;28;20041;-88
2022/09/12 19:25:34;;;;;;;11.57;6.97;;;;;;;;;;8395428;28;20052;-83
2022/09/12 19:29:38;;;;;;;12.30;7.18;;;;;;;;;;8409426;28;20385;-86
2022/09/12 19:33:41;;;;;;;12.35;6.40;;;;;;;;;;8395344;28;20047;-82
2022/09/12 19:37:44;;;;;;;15.65;9.18;;;;;;;;;;8408050;28;20073;-83
2022/09/12 19:41:47;;;;;;;13.63;8.75;;;;;;;;;;8392578;28;20464;-84
2022/09/12 19:45:52;;;;;;;27.65;14.77;;;;;;;;;;8395424;28;20072;-81
2022/09/12 19:49:54;;;;;;;13.68;4.78;;;;;;;;;;8394768;28;20071;-85
2022/09/12 19:53:57;;;;;;;8.60;4.63;;;;;;;;;;8380794;28;20052;-81
2022/09/12 19:57:59;;;;;;;9.90;4.25;;;;;;;;;;8401306;28;20448;-81
2022/09/12 20:02:03;;;;;;;6.88;4.10;;;;;;;;;;8400613;28;20053;-82
2022/09/12 20:06:09;;;;;;;12.77;5.18;;;;;;;;;;8418835;28;20056;-81
2022/09/12 20:10:12;;;;;;;15.05;8.57;;;;;;;;;;8410350;28;20382;-82
2022/09/12 20:14:14;;;;;;;9.95;6.25;;;;;;;;;;8400359;28;20044;-81
2022/09/12 20:18:19;;;;;;;7.63;4.68;;;;;;;;;;8400255;28;20040;-82
2022/09/12 20:22:21;;;;;;;12.43;5.40;;;;;;;;;;8400574;28;20068;-82
2022/09/12 20:26:25;;;;;;;8.63;4.32;;;;;;;;;;8399935;28;20102;-81
2022/09/12 20:30:28;;;;;;;6.35;4.03;;;;;;;;;;8400394;28;20121;-81
2022/09/12 20:34:32;;;;;;;6.00;3.70;;;;;;;;;;8399827;28;20053;-81
2022/09/12 20:38:35;;;;;;;6.85;4.18;;;;;;;;;;8400198;28;20041;-84
2022/09/12 20:42:37;;;;;;;11.68;6.38;;;;;;;;;;8399645;28;20040;-81
2022/09/12 20:46:40;;;;;;;12.00;6.13;;;;;;;;;;8399342;28;20052;-81
2022/09/12 20:50:44;;;;;;;14.43;6.15;;;;;;;;;;8399895;28;20040;-82
2022/09/12 20:54:47;;;;;;;14.43;7.93;;;;;;;;;;8399299;28;20053;-82
2022/09/12 20:58:50;;;;;;;13.85;7.80;;;;;;;;;;8399421;28;20124;-86
2022/09/12 21:02:52;;;;;;;17.58;8.25;;;;;;;;;;8404996;28;20047;-83
2022/09/12 21:06:56;;;;;;;12.85;7.47;;;;;;;;;;8406812;28;20059;-83
2022/09/12 21:10:59;;;;;;;12.40;7.50;;;;;;;;;;8398708;28;20052;-82
2022/09/12 21:15:01;;;;;;;14.18;7.60;;;;;;;;;;8399104;28;20041;-81
2022/09/12 21:19:05;;;;;;;13.60;6.45;;;;;;;;;;8398458;28;20415;-86
2022/09/12 21:23:09;;;;;;;10.82;6.65;;;;;;;;;;8398053;28;20056;-85
2022/09/12 21:27:12;;;;;;;11.50;7.93;;;;;;;;;;8408170;28;20051;-81
2022/09/12 21:31:14;;;;;;;11.63;7.45;;;;;;;;;;8401825;28;20053;-81
2022/09/12 21:35:17;;;;;;;11.50;7.05;;;;;;;;;;8397852;28;20044;-82
2022/09/12 21:39:21;;;;;;;14.00;7.18;;;;;;;;;;8398150;28;20075;-81
2022/09/12 21:43:23;;;;;;;11.10;6.10;;;;;;;;;;8397489;28;20040;-81
2022/09/12 21:47:26;;;;;;;9.57;5.88;;;;;;;;;;8397476;28;20048;-82
2022/09/12 21:51:28;;;;;;;10.00;5.63;;;;;;;;;;8411673;28;20426;-83
2022/09/12 21:55:32;;;;;;;9.70;5.68;;;;;;;;;;8397151;28;20106;-82
2022/09/12 21:59:34;;;;;;;9.45;5.55;;;;;;;;;;8397173;28;20098;-85
2022/09/12 22:03:37;;;;;;;10.73;5.35;;;;;;;;;;8409163;28;20047;-81
2022/09/12 22:07:39;;;;;;;12.73;5.95;;;;;;;;;;8398446;28;20537;-81
2022/09/12 22:11:44;;;;;;;11.02;6.13;;;;;;;;;;8405462;28;20052;-80
2022/09/12 22:15:50;;;;;;;9.40;5.63;;;;;;;;;;8401278;28;20051;-83
2022/09/12 22:19:53;;;;;;;10.18;6.15;;;;;;;;;;8396479;28;20068;-81
2022/09/12 22:28:17;;;;;;;10.73;5.65;;;;;;;;;;8396578;28;20055;-84
2022/09/12 22:32:20;;;;;;;10.00;6.30;;;;;;;;;;8396217;28;20052;-82
2022/09/12 22:36:22;;;;;;;10.93;6.65;;;;;;;;;;8396009;28;20097;-84
2022/09/12 22:40:25;;;;;;;9.80;5.97;;;;;;;;;;8396359;28;20464;-83
2022/09/12 22:44:29;;;;;;;10.63;5.78;;;;;;;;;;8409288;28;20040;-84
2022/09/12 22:48:31;;;;;;;13.48;6.10;;;;;;;;;;8397272;28;20045;-83
2022/09/12 22:52:34;;;;;;;13.57;6.82;;;;;;;;;;8409926;28;20051;-82
2022/09/12 22:56:36;;;;;;;9.88;6.32;;;;;;;;;;8396402;28;20048;-83
2022/09/12 23:00:40;;;;;;;8.20;5.50;;;;;;;;;;8396076;28;20036;-84
2022/09/12 23:04:43;;;;;;;11.07;5.75;;;;;;;;;;8409913;28;20040;-80
2022/09/12 23:08:45;;;;;;;11.75;6.18;;;;;;;;;;8395412;28;20098;-85
2022/09/12 23:12:48;;;;;;;8.73;5.40;;;;;;;;;;8395836;28;20086;-80
2022/09/12 23:16:52;;;;;;;10.00;6.00;;;;;;;;;;8395308;28;20051;-85
2022/09/12 23:21:02;;;;;;;11.15;5.63;;;;;;;;;;8395254;28;20400;-82
2022/09/12 23:25:06;;;;;;;11.30;5.97;;;;;;;;;;8395698;28;20516;-85
2022/09/12 23:29:09;;;;;;;11.98;5.47;;;;;;;;;;8399287;28;20403;-83
2022/09/12 23:33:12;;;;;;;10.77;5.57;;;;;;;;;;8415976;28;20053;-83
2022/09/12 23:37:15;;;;;;;10.25;6.28;;;;;;;;;;8416432;28;20106;-82
2022/09/12 23:41:18;;;;;;;11.88;6.30;;;;;;;;;;8408815;28;20076;-81
2022/09/12 23:45:21;;;;;;;11.63;6.30;;;;;;;;;;8401721;28;20075;-85
2022/09/12 23:49:25;;;;;;;8.73;5.63;;;;;;;;;;8408453;28;20047;-85
2022/09/12 23:53:28;;;;;;;12.70;6.05;;;;;;;;;;8434840;28;20044;-85
2022/09/12 23:57:30;;;;;;;12.50;7.20;;;;;;;;;;8431978;28;20060;-83
